createdAt,value
2017-08-17T00:00:21.016Z,93.10
2017-08-17T00:02:47.163Z,92.30
2017-08-17T00:05:13.271Z,92.10
2017-08-17T00:07:39.392Z,92.90
2017-08-17T00:10:05.624Z,93.10
2017-08-17T00:12:31.762Z,92.60
2017-08-17T00:14:57.885Z,92.00
2017-08-17T00:17:24.052Z,92.80
2017-08-17T00:19:50.906Z,93.60
2017-08-17T00:22:17.021Z,93.60
2017-08-17T00:24:43.896Z,93.10
2017-08-17T00:27:10.012Z,93.10
2017-08-17T00:29:36.129Z,93.20
2017-08-17T00:32:02.378Z,93.10
2017-08-17T00:34:28.501Z,93.60
2017-08-17T00:36:54.632Z,93.40
2017-08-17T00:39:20.792Z,93.40
2017-08-17T00:41:46.920Z,93.10
2017-08-17T00:44:13.037Z,93.00
2017-08-17T00:46:39.288Z,92.90
2017-08-17T00:49:05.698Z,93.10
2017-08-17T00:51:31.828Z,93.10
2017-08-17T00:53:58.008Z,93.30
2017-08-17T00:56:24.152Z,93.40
2017-08-17T00:58:50.293Z,93.20
2017-08-17T01:01:16.458Z,93.30
2017-08-17T01:03:43.323Z,93.50
2017-08-17T01:06:09.465Z,93.50
2017-08-17T01:08:35.744Z,93.30
2017-08-17T01:11:02.613Z,93.30
2017-08-17T01:13:28.778Z,93.30
2017-08-17T01:15:54.953Z,93.50
2017-08-17T01:18:21.092Z,93.50
2017-08-17T01:20:47.232Z,93.50
2017-08-17T01:23:13.503Z,93.50
2017-08-17T01:25:39.628Z,93.60
2017-08-17T01:28:05.777Z,93.70
2017-08-17T01:30:32.704Z,93.70
2017-08-17T01:32:58.845Z,93.70
2017-08-17T01:35:25.744Z,93.50
2017-08-17T01:37:51.942Z,93.50
2017-08-17T01:40:18.082Z,93.60
2017-08-17T01:42:44.221Z,93.60
2017-08-17T01:45:10.374Z,93.70
2017-08-17T01:47:36.560Z,93.60
2017-08-17T01:50:02.697Z,93.80
2017-08-17T01:52:29.081Z,93.90
2017-08-17T01:54:56.002Z,94.10
2017-08-17T01:57:22.120Z,94.10
2017-08-17T01:59:48.260Z,94.20
2017-08-17T02:02:14.421Z,94.30
2017-08-17T02:04:40.550Z,94.30
2017-08-17T02:07:06.689Z,94.40
2017-08-17T02:09:32.841Z,94.30
2017-08-17T02:11:58.981Z,94.40
2017-08-17T02:14:25.085Z,94.30
2017-08-17T02:16:51.525Z,94.30
2017-08-17T02:19:17.629Z,94.30
2017-08-17T02:21:43.738Z,94.30
2017-08-17T02:24:09.869Z,94.40
2017-08-17T02:26:36.001Z,94.60
2017-08-17T02:29:02.126Z,94.80
2017-08-17T02:31:28.244Z,94.80
2017-08-17T02:33:54.365Z,94.90
2017-08-17T02:36:20.484Z,95.00
2017-08-17T02:38:46.633Z,95.00
2017-08-17T02:41:12.804Z,95.00
2017-08-17T02:43:38.917Z,95.20
2017-08-17T02:46:05.071Z,95.30
2017-08-17T02:48:31.925Z,95.60
2017-08-17T02:50:58.890Z,96.60
2017-08-17T02:53:25.006Z,96.60
2017-08-17T02:55:51.128Z,96.80
2017-08-17T02:58:17.276Z,97.20
2017-08-17T03:00:43.390Z,97.20
2017-08-17T03:03:09.503Z,96.70
2017-08-17T03:05:35.972Z,96.30
2017-08-17T03:08:02.080Z,96.20
2017-08-17T03:10:28.189Z,96.10
2017-08-17T03:12:54.309Z,95.90
2017-08-17T03:15:21.152Z,96.00
2017-08-17T03:17:48.056Z,95.90
2017-08-17T03:20:14.157Z,95.90
2017-08-17T03:22:40.273Z,95.30
2017-08-17T03:25:06.396Z,95.40
2017-08-17T03:27:32.515Z,95.50
2017-08-17T03:29:58.621Z,95.40
2017-08-17T03:32:24.783Z,95.40
2017-08-17T03:34:50.897Z,94.90
2017-08-17T03:37:17.000Z,95.20
2017-08-17T03:39:43.165Z,95.30
2017-08-17T03:42:09.264Z,95.30
2017-08-17T03:44:35.386Z,95.30
2017-08-17T03:47:01.529Z,95.30
2017-08-17T03:49:27.636Z,95.20
2017-08-17T03:51:53.748Z,95.30
2017-08-17T03:54:20.632Z,95.40
2017-08-17T03:56:46.789Z,95.40
2017-08-17T03:59:12.913Z,95.30
2017-08-17T04:01:39.057Z,95.30
2017-08-17T04:04:06.189Z,95.90
2017-08-17T04:06:32.292Z,95.60
2017-08-17T04:08:58.437Z,95.60
2017-08-17T04:11:24.552Z,95.60
2017-08-17T04:13:50.665Z,95.70
2017-08-17T04:16:17.119Z,95.80
2017-08-17T04:18:43.228Z,95.80
2017-08-17T04:21:09.336Z,95.80
2017-08-17T04:23:35.486Z,95.70
2017-08-17T04:26:01.605Z,95.60
2017-08-17T04:28:27.716Z,95.70
2017-08-17T04:30:53.845Z,95.70
2017-08-17T04:33:19.944Z,95.60
2017-08-17T04:35:46.064Z,95.70
2017-08-17T04:38:12.199Z,95.70
2017-08-17T04:40:38.317Z,95.70
2017-08-17T04:43:04.426Z,95.70
2017-08-17T04:45:31.596Z,95.60
2017-08-17T04:47:57.711Z,95.60
2017-08-17T04:50:24.552Z,95.60
2017-08-17T04:52:51.425Z,95.60
2017-08-17T04:55:17.538Z,95.60
2017-08-17T04:58:14.360Z,95.60
2017-08-17T05:00:41.211Z,95.80
2017-08-17T05:03:08.116Z,95.90
2017-08-17T05:05:34.319Z,95.80
2017-08-17T05:08:00.441Z,95.90
2017-08-17T05:10:26.588Z,95.90
2017-08-17T05:12:52.705Z,95.80
2017-08-17T05:15:18.855Z,95.60
2017-08-17T05:17:45.012Z,95.70
2017-08-17T05:20:11.112Z,95.60
2017-08-17T05:22:37.224Z,95.40
2017-08-17T05:25:03.472Z,95.60
2017-08-17T05:27:30.350Z,95.80
2017-08-17T05:29:56.691Z,95.60
2017-08-17T05:32:23.029Z,95.50
2017-08-17T05:34:49.460Z,95.60
2017-08-17T05:37:15.785Z,95.70
2017-08-17T05:39:42.133Z,95.70
2017-08-17T05:42:08.464Z,95.70
2017-08-17T05:44:34.573Z,95.70
2017-08-17T05:47:00.902Z,95.80
2017-08-17T05:49:27.219Z,95.70
2017-08-17T05:51:53.328Z,95.60
2017-08-17T05:54:20.365Z,95.50
2017-08-17T05:56:47.370Z,95.40
2017-08-17T05:59:13.490Z,95.40
2017-08-17T06:01:40.299Z,95.30
2017-08-17T06:04:06.620Z,95.20
2017-08-17T06:06:32.953Z,95.20
2017-08-17T06:09:00.493Z,95.10
2017-08-17T06:11:26.668Z,95.00
2017-08-17T06:13:52.788Z,94.90
2017-08-17T06:16:18.912Z,94.90
2017-08-17T06:18:45.020Z,94.80
2017-08-17T06:21:11.141Z,94.80
2017-08-17T06:23:37.291Z,94.80
2017-08-17T06:26:03.401Z,94.70
2017-08-17T06:28:29.518Z,94.70
2017-08-17T06:30:55.642Z,94.80
2017-08-17T06:33:21.752Z,94.70
2017-08-17T06:35:48.631Z,94.80
2017-08-17T06:38:14.732Z,94.70
2017-08-17T06:40:42.113Z,94.80
2017-08-17T06:43:08.569Z,94.60
2017-08-17T06:45:34.694Z,94.40
2017-08-17T06:48:00.800Z,94.30
2017-08-17T06:50:26.939Z,94.30
2017-08-17T06:52:53.080Z,94.40
2017-08-17T06:55:19.188Z,94.70
2017-08-17T06:57:45.326Z,94.80
2017-08-17T07:00:11.668Z,94.80
2017-08-17T07:02:37.784Z,94.60
2017-08-17T07:05:03.933Z,94.60
2017-08-17T07:07:30.064Z,94.70
2017-08-17T07:09:56.992Z,95.10
2017-08-17T07:12:23.312Z,94.70
2017-08-17T07:14:49.820Z,94.70
2017-08-17T07:17:15.944Z,94.60
2017-08-17T07:19:44.101Z,94.50
2017-08-17T07:22:10.213Z,94.50
2017-08-17T07:24:37.202Z,94.10
2017-08-17T07:27:03.337Z,94.10
2017-08-17T07:29:29.449Z,94.00
2017-08-17T07:31:55.577Z,93.90
2017-08-17T07:34:21.688Z,93.80
2017-08-17T07:36:47.801Z,93.90
2017-08-17T07:39:14.383Z,93.90
2017-08-17T07:41:40.489Z,94.00
2017-08-17T07:44:06.963Z,93.90
2017-08-17T07:46:33.469Z,93.70
2017-08-17T07:48:59.580Z,93.40
2017-08-17T07:51:25.704Z,93.00
2017-08-17T07:53:51.871Z,92.70
2017-08-17T07:56:18.032Z,92.40
2017-08-17T07:58:44.155Z,91.90
2017-08-17T08:01:10.499Z,91.20
2017-08-17T08:03:36.615Z,91.00
2017-08-17T08:06:02.758Z,90.80
2017-08-17T08:08:28.943Z,90.50
2017-08-17T08:10:55.809Z,88.60
2017-08-17T08:13:21.924Z,88.50
2017-08-17T08:15:48.792Z,89.30
2017-08-17T08:18:14.905Z,89.20
2017-08-17T08:20:41.020Z,88.20
2017-08-17T08:23:07.699Z,87.30
2017-08-17T08:25:33.977Z,88.00
2017-08-17T08:28:00.149Z,87.30
2017-08-17T08:30:26.328Z,86.30
2017-08-17T08:32:53.184Z,87.50
2017-08-17T08:35:19.304Z,87.40
2017-08-17T08:37:47.038Z,86.10
2017-08-17T08:40:13.168Z,86.10
2017-08-17T08:42:39.391Z,86.80
2017-08-17T08:45:05.505Z,87.90
2017-08-17T08:47:31.698Z,85.70
2017-08-17T08:49:58.058Z,86.10
2017-08-17T08:52:24.236Z,85.70
2017-08-17T08:54:51.088Z,84.50
2017-08-17T08:57:17.225Z,84.30
2017-08-17T08:59:44.130Z,84.20
2017-08-17T09:02:11.025Z,84.60
2017-08-17T09:04:37.571Z,84.10
2017-08-17T09:07:03.685Z,82.20
2017-08-17T09:09:29.801Z,82.30
2017-08-17T09:11:56.208Z,82.60
2017-08-17T09:14:23.059Z,83.40
2017-08-17T09:16:49.177Z,83.40
2017-08-17T09:19:16.380Z,80.00
2017-08-17T09:21:42.488Z,79.90
2017-08-17T09:24:08.609Z,79.50
2017-08-17T09:26:34.851Z,80.00
2017-08-17T09:29:00.962Z,79.50
2017-08-17T09:31:27.080Z,79.30
2017-08-17T09:33:53.222Z,79.00
2017-08-17T09:36:19.338Z,79.10
2017-08-17T09:38:45.455Z,80.20
2017-08-17T09:41:11.597Z,80.20
2017-08-17T09:43:37.707Z,80.20
2017-08-17T09:46:03.833Z,80.40
2017-08-17T09:48:30.061Z,80.50
2017-08-17T09:50:56.226Z,79.00
2017-08-17T09:53:22.340Z,79.20
2017-08-17T09:55:48.724Z,79.00
2017-08-17T09:58:14.844Z,79.40
2017-08-17T10:00:41.703Z,78.70
2017-08-17T10:03:07.928Z,78.70
2017-08-17T10:05:34.041Z,78.30
2017-08-17T10:08:00.144Z,78.50
2017-08-17T10:10:26.289Z,77.30
2017-08-17T10:12:53.162Z,78.10
2017-08-17T10:15:19.285Z,78.00
2017-08-17T10:17:45.431Z,77.60
2017-08-17T10:20:11.558Z,76.40
2017-08-17T10:22:37.663Z,77.00
2017-08-17T10:25:03.904Z,77.30
2017-08-17T10:27:30.035Z,76.30
2017-08-17T10:29:56.158Z,77.30
2017-08-17T10:32:22.358Z,77.50
2017-08-17T10:34:48.481Z,76.70
2017-08-17T10:37:14.601Z,75.20
2017-08-17T10:39:40.815Z,75.70
2017-08-17T10:42:08.035Z,76.10
2017-08-17T10:44:34.235Z,76.10
2017-08-17T10:47:00.766Z,76.40
2017-08-17T10:49:26.892Z,76.10
2017-08-17T10:51:53.011Z,75.80
2017-08-17T10:54:19.145Z,75.00
2017-08-17T10:56:45.282Z,75.30
2017-08-17T10:59:11.656Z,76.40
2017-08-17T11:01:38.544Z,76.90
2017-08-17T11:04:05.285Z,76.50
2017-08-17T11:06:31.538Z,77.40
2017-08-17T11:08:58.468Z,77.60
2017-08-17T11:11:24.638Z,77.40
2017-08-17T11:13:50.752Z,77.00
2017-08-17T11:16:16.892Z,77.50
2017-08-17T11:18:43.947Z,75.90
2017-08-17T11:21:10.153Z,75.50
2017-08-17T11:23:36.356Z,76.00
2017-08-17T11:26:02.522Z,75.90
2017-08-17T11:28:29.619Z,75.10
2017-08-17T11:30:55.734Z,75.10
2017-08-17T11:33:22.036Z,75.50
2017-08-17T11:35:48.916Z,75.90
2017-08-17T11:38:15.037Z,74.60
2017-08-17T11:40:41.186Z,74.80
2017-08-17T11:43:07.316Z,75.30
2017-08-17T11:45:33.420Z,74.20
2017-08-17T11:47:59.564Z,73.50
2017-08-17T11:50:25.685Z,73.70
2017-08-17T11:52:51.829Z,75.00
2017-08-17T11:55:17.940Z,75.10
2017-08-17T11:57:44.044Z,74.30
2017-08-17T12:00:10.222Z,74.40
2017-08-17T12:02:37.081Z,73.30
2017-08-17T12:05:03.454Z,73.30
2017-08-17T12:07:29.972Z,73.00
2017-08-17T12:09:56.292Z,70.60
2017-08-17T12:12:22.410Z,70.60
2017-08-17T12:14:48.557Z,70.40
2017-08-17T12:17:14.680Z,70.40
2017-08-17T12:19:40.780Z,69.30
2017-08-17T12:22:06.973Z,68.60
2017-08-17T12:24:34.225Z,67.20
2017-08-17T12:27:00.333Z,67.50
2017-08-17T12:29:26.877Z,67.20
2017-08-17T12:31:52.990Z,66.50
2017-08-17T12:34:19.101Z,67.00
2017-08-17T12:36:45.221Z,67.70
2017-08-17T12:39:11.521Z,68.90
2017-08-17T12:41:37.904Z,68.50
2017-08-17T12:44:04.360Z,67.50
2017-08-17T12:46:30.649Z,67.70
2017-08-17T12:48:56.965Z,67.90
2017-08-17T12:51:23.147Z,66.40
2017-08-17T12:53:49.296Z,67.10
2017-08-17T12:56:16.150Z,67.20
2017-08-17T12:58:42.272Z,67.00
2017-08-17T13:01:08.512Z,67.80
2017-08-17T13:03:34.615Z,67.60
2017-08-17T13:06:01.700Z,68.00
2017-08-17T13:08:28.099Z,68.00
2017-08-17T13:10:54.223Z,66.80
2017-08-17T13:13:21.100Z,66.40
2017-08-17T13:15:47.228Z,66.30
2017-08-17T13:18:13.336Z,67.00
2017-08-17T13:20:39.495Z,67.00
2017-08-17T13:23:05.634Z,67.60
2017-08-17T13:25:31.735Z,68.50
2017-08-17T13:27:58.220Z,68.30
2017-08-17T13:30:25.334Z,67.50
2017-08-17T13:32:51.530Z,67.50
2017-08-17T13:35:18.066Z,67.90
2017-08-17T13:37:44.250Z,68.30
2017-08-17T13:40:10.936Z,68.10
2017-08-17T13:42:37.774Z,67.30
2017-08-17T13:45:04.431Z,68.30
2017-08-17T13:47:31.622Z,69.00
2017-08-17T13:49:58.653Z,69.50
2017-08-17T13:52:24.836Z,70.90
2017-08-17T13:54:51.277Z,71.60
2017-08-17T13:57:17.936Z,73.50
2017-08-17T13:59:44.158Z,74.10
2017-08-17T14:02:10.312Z,72.30
2017-08-17T14:04:36.490Z,72.80
2017-08-17T14:07:02.623Z,74.30
2017-08-17T14:09:28.837Z,75.00
2017-08-17T14:11:55.314Z,76.40
2017-08-17T14:14:21.674Z,77.40
2017-08-17T14:16:47.887Z,79.20
2017-08-17T14:19:13.995Z,80.80
2017-08-17T14:21:40.113Z,82.90
2017-08-17T14:24:06.269Z,81.90
2017-08-17T14:26:32.528Z,83.00
2017-08-17T14:28:58.807Z,82.10
2017-08-17T14:31:26.329Z,83.60
2017-08-17T14:33:52.658Z,83.60
2017-08-17T14:36:18.774Z,84.60
2017-08-17T14:38:44.920Z,86.20
2017-08-17T14:41:11.070Z,86.60
2017-08-17T14:43:37.204Z,86.00
2017-08-17T14:46:03.704Z,87.30
2017-08-17T14:48:29.837Z,88.80
2017-08-17T14:50:55.998Z,89.30
2017-08-17T14:53:22.137Z,89.60
2017-08-17T14:55:48.264Z,88.80
2017-08-17T14:58:15.124Z,90.10
2017-08-17T15:00:41.273Z,90.10
2017-08-17T15:03:07.861Z,90.50
2017-08-17T15:05:33.989Z,90.30
2017-08-17T15:08:00.875Z,90.20
2017-08-17T15:10:27.013Z,90.20
2017-08-17T15:12:53.141Z,90.30
2017-08-17T15:15:19.257Z,90.50
2017-08-17T15:17:45.434Z,90.50
2017-08-17T15:20:11.962Z,90.50
2017-08-17T15:22:38.088Z,90.60
2017-08-17T15:25:05.125Z,90.90
2017-08-17T15:27:31.288Z,90.90
2017-08-17T15:29:58.141Z,91.20
2017-08-17T15:32:24.314Z,91.20
2017-08-17T15:34:50.610Z,91.50
2017-08-17T15:37:17.091Z,92.00
2017-08-17T15:39:43.318Z,92.30
2017-08-17T15:42:09.450Z,92.90
2017-08-17T15:44:35.583Z,93.10
2017-08-17T15:47:02.452Z,94.20
2017-08-17T15:49:28.657Z,94.20
2017-08-17T15:51:56.086Z,94.80
2017-08-17T15:54:22.335Z,94.80
2017-08-17T15:56:48.496Z,95.50
2017-08-17T15:59:14.968Z,95.60
2017-08-17T16:01:41.068Z,96.10
2017-08-17T16:04:07.328Z,96.20
2017-08-17T16:06:33.481Z,96.80
2017-08-17T16:08:59.801Z,96.60
2017-08-17T16:11:25.952Z,96.60
2017-08-17T16:13:52.129Z,96.70
2017-08-17T16:16:18.233Z,96.30
2017-08-17T16:18:44.412Z,95.90
2017-08-17T16:21:11.734Z,96.40
2017-08-17T16:23:38.045Z,96.40
2017-08-17T16:26:04.381Z,96.60
2017-08-17T16:28:30.840Z,97.10
2017-08-17T16:30:56.988Z,97.00
2017-08-17T16:33:23.855Z,97.00
2017-08-17T16:35:49.995Z,96.90
2017-08-17T16:38:16.173Z,97.00
2017-08-17T16:40:42.318Z,97.20
2017-08-17T16:43:09.772Z,97.10
2017-08-17T16:45:35.916Z,97.10
2017-08-17T16:48:02.064Z,97.50
2017-08-17T16:50:28.217Z,97.60
2017-08-17T16:52:54.324Z,97.70
2017-08-17T16:55:20.743Z,97.80
2017-08-17T16:57:47.089Z,97.80
2017-08-17T17:00:13.260Z,98.10
2017-08-17T17:02:40.135Z,98.20
2017-08-17T17:05:06.294Z,98.20
2017-08-17T17:07:32.421Z,98.30
2017-08-17T17:09:59.402Z,98.30
2017-08-17T17:12:25.900Z,98.50
2017-08-17T17:14:52.896Z,98.50
2017-08-17T17:17:19.760Z,99.00
2017-08-17T17:19:46.185Z,99.00
2017-08-17T17:22:12.296Z,99.30
2017-08-17T17:24:39.191Z,99.60
2017-08-17T17:27:05.629Z,99.60
2017-08-17T17:29:31.742Z,99.40
2017-08-17T17:31:57.865Z,99.40
2017-08-17T17:34:24.287Z,99.50
2017-08-17T17:36:50.475Z,99.40
2017-08-17T17:39:16.676Z,99.40
2017-08-17T17:41:43.283Z,99.50
2017-08-17T17:44:09.405Z,99.40
2017-08-17T17:46:35.644Z,99.70
2017-08-17T17:49:02.190Z,99.70
2017-08-17T17:51:28.459Z,99.70
2017-08-17T17:54:23.522Z,99.80
2017-08-17T17:56:49.635Z,99.90
2017-08-17T17:59:15.845Z,99.90
2017-08-17T18:01:41.961Z,99.90
2017-08-17T18:04:08.620Z,99.90
2017-08-17T18:06:34.802Z,99.90
2017-08-17T18:09:01.695Z,99.90
2017-08-17T18:11:28.036Z,99.90
2017-08-17T18:13:54.152Z,99.90
2017-08-17T18:16:20.268Z,99.90
2017-08-17T18:18:46.414Z,99.90
2017-08-17T18:21:12.550Z,99.90
2017-08-17T18:23:38.669Z,99.90
2017-08-17T18:26:04.785Z,99.90
2017-08-17T18:28:31.461Z,99.90
2017-08-17T18:30:57.940Z,99.90
2017-08-17T18:33:24.162Z,99.90
2017-08-17T18:35:50.320Z,99.90
2017-08-17T18:38:16.442Z,99.90
2017-08-17T18:40:42.548Z,99.90
2017-08-17T18:43:09.209Z,99.90
2017-08-17T18:45:35.724Z,99.90
2017-08-17T18:48:01.872Z,99.90
2017-08-17T18:50:28.308Z,99.90
2017-08-17T18:52:54.424Z,99.90
2017-08-17T18:55:20.550Z,99.90
2017-08-17T18:57:46.692Z,99.90
2017-08-17T19:00:12.834Z,99.90
2017-08-17T19:02:38.968Z,99.90
2017-08-17T19:05:05.831Z,99.90
2017-08-17T19:07:32.013Z,99.90
2017-08-17T19:09:58.655Z,99.90
2017-08-17T19:12:25.097Z,99.90
2017-08-17T19:14:51.220Z,99.90
2017-08-17T19:17:17.393Z,99.90
2017-08-17T19:19:43.750Z,99.90
2017-08-17T19:22:10.669Z,99.90
2017-08-17T19:24:37.102Z,99.90
2017-08-17T19:27:03.274Z,99.90
2017-08-17T19:29:29.506Z,99.90
2017-08-17T19:31:55.665Z,99.90
2017-08-17T19:34:21.803Z,99.90
2017-08-17T19:36:48.326Z,99.90
2017-08-17T19:39:14.501Z,99.90
2017-08-17T19:41:40.625Z,99.90
2017-08-17T19:44:06.737Z,99.90
2017-08-17T19:46:32.871Z,99.90
2017-08-17T19:48:58.989Z,99.90
2017-08-17T19:51:25.745Z,99.90
2017-08-17T19:53:52.072Z,99.90
2017-08-17T19:56:18.184Z,99.90
2017-08-17T19:58:44.629Z,99.90
2017-08-17T20:01:10.751Z,99.90
2017-08-17T20:03:36.871Z,99.90
2017-08-17T20:06:03.015Z,99.90
2017-08-17T20:08:29.315Z,99.90
2017-08-17T20:10:55.459Z,99.90
2017-08-17T20:13:21.609Z,99.90
2017-08-17T20:15:47.935Z,99.90
2017-08-17T20:18:14.812Z,99.90
2017-08-17T20:20:41.129Z,99.90
2017-08-17T20:23:08.277Z,99.90
2017-08-17T20:25:35.132Z,99.90
2017-08-17T20:28:01.563Z,99.90
2017-08-17T20:30:28.660Z,99.90
2017-08-17T20:32:54.997Z,99.90
2017-08-17T20:35:21.435Z,99.90
2017-08-17T20:37:47.593Z,99.90
2017-08-17T20:40:13.708Z,99.90
2017-08-17T20:42:40.050Z,99.90
2017-08-17T20:45:06.964Z,99.90
2017-08-17T20:47:33.074Z,99.90
2017-08-17T20:49:59.192Z,99.90
2017-08-17T20:52:25.351Z,99.90
2017-08-17T20:54:51.481Z,99.90
2017-08-17T20:57:17.637Z,99.90
2017-08-17T20:59:43.792Z,99.90
2017-08-17T21:02:09.912Z,99.90
2017-08-17T21:04:36.276Z,99.90
2017-08-17T21:07:02.511Z,99.90
2017-08-17T21:09:28.664Z,99.90
2017-08-17T21:11:55.519Z,99.90
2017-08-17T21:14:21.997Z,99.90
2017-08-17T21:16:48.125Z,99.90
2017-08-17T21:19:14.246Z,99.90
2017-08-17T21:21:40.397Z,99.90
2017-08-17T21:24:06.503Z,99.90
2017-08-17T21:26:32.621Z,99.90
2017-08-17T21:28:58.752Z,99.90
2017-08-17T21:31:24.865Z,99.90
2017-08-17T21:33:50.981Z,99.90
2017-08-17T21:36:17.135Z,99.90
2017-08-17T21:38:43.258Z,99.90
2017-08-17T21:41:09.379Z,99.90
2017-08-17T21:43:35.500Z,99.90
2017-08-17T21:46:01.632Z,99.90
2017-08-17T21:48:27.755Z,99.90
2017-08-17T21:50:54.088Z,99.90
2017-08-17T21:53:20.198Z,99.90
2017-08-17T21:55:46.333Z,99.90
2017-08-17T21:58:12.447Z,99.90
2017-08-17T22:00:38.573Z,99.90
2017-08-17T22:03:04.716Z,99.90
2017-08-17T22:05:30.830Z,99.90
2017-08-17T22:07:56.933Z,99.90
2017-08-17T22:10:23.045Z,99.90
2017-08-17T22:12:49.159Z,99.90
2017-08-17T22:15:16.057Z,99.90
2017-08-17T22:17:42.169Z,99.90
2017-08-17T22:20:08.267Z,99.90
2017-08-17T22:22:34.742Z,99.90
2017-08-17T22:25:00.832Z,99.90
2017-08-17T22:27:26.935Z,99.90
2017-08-17T22:29:53.829Z,99.90
2017-08-17T22:32:19.948Z,99.90
2017-08-17T22:34:46.056Z,99.90
2017-08-17T22:37:12.188Z,99.90
2017-08-17T22:39:38.295Z,99.90
2017-08-17T22:42:04.402Z,99.90
2017-08-17T22:44:31.382Z,99.90
2017-08-17T22:46:57.471Z,99.90
2017-08-17T22:49:24.317Z,99.90
2017-08-17T22:51:51.240Z,99.90
2017-08-17T22:54:17.363Z,99.90
2017-08-17T22:56:43.479Z,99.90
2017-08-17T22:59:09.583Z,99.90
2017-08-17T23:01:35.691Z,99.90
2017-08-17T23:04:01.807Z,99.90
2017-08-17T23:06:27.907Z,99.90
2017-08-17T23:08:54.772Z,99.90
2017-08-17T23:11:20.904Z,99.90
2017-08-17T23:13:47.012Z,99.90
2017-08-17T23:16:13.860Z,99.90
2017-08-17T23:18:40.021Z,99.90
2017-08-17T23:21:06.161Z,99.90
2017-08-17T23:23:32.282Z,99.90
2017-08-17T23:25:58.420Z,99.90
2017-08-17T23:28:24.519Z,99.90
2017-08-17T23:30:50.634Z,99.90
2017-08-17T23:33:16.860Z,99.90
2017-08-17T23:35:42.985Z,99.90
2017-08-17T23:38:09.124Z,99.90
2017-08-17T23:40:35.568Z,99.90
2017-08-17T23:43:01.688Z,99.90
2017-08-17T23:45:27.797Z,99.90
2017-08-17T23:47:53.926Z,99.90
2017-08-17T23:50:20.037Z,99.90
2017-08-17T23:52:46.152Z,99.90
2017-08-17T23:55:12.295Z,99.90
2017-08-17T23:57:38.399Z,99.90
